Time;durP1;ratioP1;P1;durP2;ratioP2;P2;SDS_P1;SDS_P2;PMS_P1;PMS_P2;Temp;Humidity;BMP_temperature;BMP_pressure;BME280_temperature;BME280_humidity;BME280_pressure;Samples;Min_cycle;Max_cycle;Signal;HPM_P1;HPM_P2
2021/05/07 00:00:57;;;;;;;10.02;5.60;;;9.40;94.80;;;;;;5029089;28;20025;-74
2021/05/07 00:03:23;;;;;;;9.82;5.15;;;9.40;94.60;;;;;;5029083;28;20039;-75
2021/05/07 00:05:55;;;;;;;12.68;7.65;;;9.40;94.20;;;;;;5028571;28;20468;-75
2021/05/07 00:08:34;;;;;;;9.25;6.07;;;9.40;94.00;;;;;;5029260;28;20067;-76
2021/05/07 00:11:03;;;;;;;7.75;5.03;;;9.50;93.70;;;;;;5030555;28;20529;-74
2021/05/07 00:13:30;;;;;;;12.30;4.97;;;9.50;93.40;;;;;;5029070;28;20121;-75
2021/05/07 00:15:56;;;;;;;7.90;4.80;;;9.40;93.80;;;;;;5027698;28;20418;-76
2021/05/07 00:18:22;;;;;;;9.07;5.03;;;9.40;94.70;;;;;;5028700;28;20045;-75
2021/05/07 00:20:47;;;;;;;8.30;4.18;;;9.40;94.70;;;;;;5028988;28;20038;-75
2021/05/07 00:23:13;;;;;;;10.68;5.60;;;9.60;94.40;;;;;;5030260;28;20108;-74
2021/05/07 00:25:40;;;;;;;10.52;5.40;;;9.60;95.00;;;;;;5029025;28;20042;-75
2021/05/07 00:28:11;;;;;;;10.52;6.18;;;9.60;95.00;;;;;;5027396;28;20584;-75
2021/05/07 00:30:38;;;;;;;12.75;6.85;;;9.60;95.40;;;;;;5028847;28;20060;-75
2021/05/07 00:33:05;;;;;;;12.57;7.15;;;9.50;95.60;;;;;;5028667;28;20033;-77
2021/05/07 00:35:31;;;;;;;9.23;6.53;;;9.50;95.80;;;;;;5027644;28;20040;-74
2021/05/07 00:37:56;;;;;;;16.73;7.15;;;9.40;95.50;;;;;;5029036;28;20029;-75
2021/05/07 00:40:22;;;;;;;7.97;6.07;;;9.40;95.40;;;;;;5028635;28;20029;-75
2021/05/07 00:42:49;;;;;;;14.35;6.53;;;9.40;95.10;;;;;;5028670;28;20034;-75
2021/05/07 00:45:16;;;;;;;10.50;5.65;;;9.40;95.30;;;;;;5028534;28;20037;-75
2021/05/07 00:47:56;;;;;;;10.07;5.43;;;9.40;94.80;;;;;;5028672;28;20029;-76
2021/05/07 00:50:25;;;;;;;9.68;5.07;;;9.20;94.80;;;;;;5028033;28;20045;-75
2021/05/07 00:52:51;;;;;;;9.88;5.03;;;9.20;95.10;;;;;;5030547;28;20030;-78
2021/05/07 00:55:16;;;;;;;12.00;5.05;;;9.10;95.30;;;;;;5027466;28;20116;-76
2021/05/07 00:57:42;;;;;;;8.27;4.57;;;9.10;95.20;;;;;;5028375;28;20069;-76
2021/05/07 01:00:09;;;;;;;8.52;4.90;;;9.00;95.00;;;;;;5028439;28;20068;-76
2021/05/07 01:02:35;;;;;;;9.45;4.72;;;8.90;95.20;;;;;;5028630;28;20526;-75
2021/05/07 01:05:06;;;;;;;13.77;5.32;;;8.90;95.90;;;;;;5029984;28;20117;-75
2021/05/07 01:07:35;;;;;;;12.32;4.90;;;8.90;96.00;;;;;;5027250;28;20464;-75
2021/05/07 01:10:02;;;;;;;11.50;5.20;;;9.00;96.30;;;;;;5028224;28;20133;-77
2021/05/07 01:12:29;;;;;;;11.15;4.45;;;8.80;95.60;;;;;;5028478;28;20067;-75
2021/05/07 01:15:18;;;;;;;7.72;4.75;;;8.80;94.90;;;;;;5027306;28;20037;-75
2021/05/07 01:17:45;;;;;;;5.60;3.60;;;8.90;94.50;;;;;;5030561;28;20034;-75
2021/05/07 01:20:22;;;;;;;6.90;4.35;;;8.90;94.40;;;;;;5033229;28;20032;-76
2021/05/07 01:22:51;;;;;;;7.53;4.87;;;8.80;95.40;;;;;;5032012;28;20482;-75
2021/05/07 01:25:18;;;;;;;;;;;8.80;96.20;;;;;;5032198;28;20376;-75
2021/05/07 01:27:46;;;;;;;7.80;4.97;;;8.90;95.80;;;;;;5031613;28;19967;-75
2021/05/07 01:30:15;;;;;;;8.90;4.47;;;8.90;96.40;;;;;;5031244;28;20041;-75
2021/05/07 01:32:42;;;;;;;8.73;5.43;;;8.80;96.50;;;;;;5031694;28;20025;-74
2021/05/07 01:35:13;;;;;;;8.60;4.80;;;8.90;96.20;;;;;;5033028;28;20025;-76
2021/05/07 01:37:39;;;;;;;6.38;4.78;;;8.80;96.00;;;;;;5030378;28;20369;-75
2021/05/07 01:40:38;;;;;;;8.35;5.28;;;8.80;95.20;;;;;;5029987;28;20087;-75
2021/05/07 01:43:04;;;;;;;8.35;5.35;;;8.90;94.90;;;;;;5031465;28;20385;-75
2021/05/07 01:45:35;;;;;;;9.75;5.28;;;8.80;94.20;;;;;;5031690;28;20041;-75
2021/05/07 01:48:02;;;;;;;7.43;4.82;;;8.80;94.40;;;;;;5031421;28;20123;-75
2021/05/07 01:50:30;;;;;;;9.27;5.00;;;8.80;94.30;;;;;;5031172;28;20116;-75
2021/05/07 01:52:56;;;;;;;8.35;5.15;;;8.80;94.40;;;;;;5032880;28;20033;-75
2021/05/07 01:55:25;;;;;;;13.27;6.10;;;8.80;94.60;;;;;;5031380;28;20044;-75
2021/05/07 01:57:51;;;;;;;9.18;5.95;;;8.70;95.70;;;;;;5031299;28;20056;-75
2021/05/07 02:00:20;;;;;;;9.05;6.05;;;8.70;96.20;;;;;;5031204;28;20029;-75
2021/05/07 02:02:46;;;;;;;10.60;6.45;;;8.60;95.80;;;;;;5030906;28;20107;-75
2021/05/07 02:05:14;;;;;;;9.93;6.22;;;8.70;95.40;;;;;;5032565;28;20455;-75
2021/05/07 02:07:42;;;;;;;8.90;6.28;;;8.60;95.90;;;;;;5031101;28;20455;-76
2021/05/07 02:10:10;;;;;;;9.63;6.57;;;8.70;96.00;;;;;;5030994;28;20065;-75
2021/05/07 02:12:35;;;;;;;11.93;6.68;;;8.70;95.70;;;;;;5031174;28;20075;-75
2021/05/07 02:15:03;;;;;;;9.60;6.55;;;8.60;95.90;;;;;;5030574;28;20041;-75
2021/05/07 02:17:29;;;;;;;11.23;6.63;;;8.40;96.40;;;;;;5029604;28;20030;-76
2021/05/07 02:19:55;;;;;;;8.75;5.82;;;8.50;96.50;;;;;;5032461;28;20104;-75
2021/05/07 02:22:20;;;;;;;11.98;6.15;;;8.40;96.40;;;;;;5030563;28;20057;-75
2021/05/07 02:24:46;;;;;;;9.18;6.03;;;8.50;96.50;;;;;;5030896;28;20065;-75
2021/05/07 02:27:12;;;;;;;10.90;7.43;;;8.50;96.40;;;;;;5028926;28;20101;-75
2021/05/07 02:29:37;;;;;;;10.90;7.20;;;8.50;96.40;;;;;;5029964;28;20045;-75
2021/05/07 02:32:03;;;;;;;10.65;6.80;;;8.30;96.70;;;;;;5032072;28;20021;-76
2021/05/07 02:34:28;;;;;;;10.05;7.07;;;8.50;96.70;;;;;;5031379;28;20033;-75
2021/05/07 02:36:54;;;;;;;12.32;7.57;;;8.40;96.90;;;;;;5030529;28;20060;-76
2021/05/07 02:39:20;;;;;;;10.35;7.32;;;8.40;96.80;;;;;;5030312;28;20391;-75
2021/05/07 02:41:45;;;;;;;10.45;7.60;;;8.40;97.00;;;;;;5030538;28;20060;-75
2021/05/07 02:44:11;;;;;;;10.30;7.57;;;8.40;96.90;;;;;;5031995;28;20443;-76
2021/05/07 02:46:37;;;;;;;13.43;8.02;;;8.30;96.70;;;;;;5030326;28;20056;-74
2021/05/07 02:49:04;;;;;;;11.35;8.00;;;8.40;96.90;;;;;;5030258;28;20033;-77
2021/05/07 02:51:31;;;;;;;12.05;8.40;;;8.50;96.90;;;;;;5030246;28;20045;-76
2021/05/07 02:53:57;;;;;;;12.90;7.85;;;8.40;96.90;;;;;;5029995;28;20069;-76
2021/05/07 02:56:23;;;;;;;11.18;7.75;;;8.20;97.40;;;;;;5029043;28;20048;-76
2021/05/07 02:58:49;;;;;;;10.57;7.65;;;8.10;97.60;;;;;;5030456;28;20033;-75
2021/05/07 03:01:15;;;;;;;10.07;7.03;;;8.30;97.50;;;;;;5029810;28;20025;-75
2021/05/07 03:03:41;;;;;;;10.27;7.03;;;8.00;97.40;;;;;;5030050;28;20056;-74
2021/05/07 03:06:07;;;;;;;11.27;7.70;;;8.00;97.40;;;;;;5029963;28;20414;-75
2021/05/07 03:08:33;;;;;;;11.73;7.65;;;8.00;97.60;;;;;;5029911;28;20374;-76
2021/05/07 03:10:58;;;;;;;11.18;7.95;;;7.90;97.60;;;;;;5031367;28;20029;-75
2021/05/07 03:13:24;;;;;;;13.63;8.23;;;7.60;97.90;;;;;;5029846;28;20046;-75
2021/05/07 03:15:50;;;;;;;11.30;8.27;;;7.70;97.80;;;;;;5030250;28;20037;-76
2021/05/07 03:18:17;;;;;;;9.00;6.90;;;7.90;97.60;;;;;;5029772;28;20041;-75
2021/05/07 03:20:44;;;;;;;9.50;6.80;;;8.00;97.40;;;;;;5029758;28;20029;-75
2021/05/07 03:23:10;;;;;;;7.35;5.80;;;7.90;97.20;;;;;;5030525;28;20463;-75
2021/05/07 03:25:36;;;;;;;8.50;6.35;;;7.70;97.00;;;;;;5029472;28;20383;-76
2021/05/07 03:28:03;;;;;;;8.18;5.97;;;7.70;97.30;;;;;;5028270;28;20102;-76
2021/05/07 03:30:34;;;;;;;8.20;5.35;;;7.40;97.30;;;;;;5029351;28;20131;-75
2021/05/07 03:33:00;;;;;;;8.02;5.68;;;7.30;97.70;;;;;;5029351;28;20481;-75
2021/05/07 03:35:29;;;;;;;7.85;5.70;;;7.30;97.50;;;;;;5029213;28;20510;-75
2021/05/07 03:37:54;;;;;;;8.02;5.82;;;7.30;97.60;;;;;;5031020;28;20057;-75
2021/05/07 03:40:20;;;;;;;7.68;5.50;;;7.30;97.50;;;;;;5027934;28;20549;-75
2021/05/07 03:42:46;;;;;;;10.27;5.35;;;7.20;97.90;;;;;;5028206;28;20140;-76
2021/05/07 03:45:13;;;;;;;8.57;5.45;;;7.30;97.70;;;;;;5029350;28;20459;-75
2021/05/07 03:47:40;;;;;;;8.10;5.60;;;7.40;97.60;;;;;;5029177;28;20112;-76
2021/05/07 03:50:07;;;;;;;7.57;5.30;;;7.40;97.30;;;;;;5030704;28;20112;-75
2021/05/07 03:52:32;;;;;;;7.43;5.00;;;7.40;97.50;;;;;;5029610;28;20147;-75
2021/05/07 03:54:58;;;;;;;6.57;4.72;;;7.40;97.40;;;;;;5029272;28;20523;-75
2021/05/07 03:57:25;;;;;;;7.70;5.72;;;7.50;97.40;;;;;;5029185;28;20125;-77
2021/05/07 03:59:50;;;;;;;8.27;5.18;;;7.50;97.40;;;;;;5028919;28;20053;-75
2021/05/07 04:02:16;;;;;;;8.70;5.32;;;7.50;97.40;;;;;;5031014;28;20327;-76
2021/05/07 04:04:44;;;;;;;8.05;5.60;;;7.60;96.90;;;;;;5028987;28;20114;-77
2021/05/07 04:07:10;;;;;;;7.65;5.20;;;7.60;97.10;;;;;;5027922;28;20029;-74
2021/05/07 04:09:39;;;;;;;10.43;5.47;;;7.40;97.10;;;;;;5029016;28;20111;-75
2021/05/07 04:12:20;;;;;;;11.43;5.63;;;7.60;97.20;;;;;;5029223;28;20102;-76
2021/05/07 04:14:46;;;;;;;6.57;5.15;;;7.50;97.00;;;;;;5028577;28;20462;-75
2021/05/07 04:17:12;;;;;;;10.15;6.45;;;7.60;97.20;;;;;;5030365;28;20059;-76
2021/05/07 04:19:37;;;;;;;12.77;6.97;;;7.50;97.40;;;;;;5028967;28;20030;-76
2021/05/07 04:22:03;;;;;;;12.93;7.75;;;7.40;97.70;;;;;;5027936;28;20084;-76
2021/05/07 04:24:29;;;;;;;13.57;8.05;;;7.30;97.90;;;;;;5027981;28;20347;-74
2021/05/07 04:26:54;;;;;;;11.20;7.32;;;7.40;97.90;;;;;;5027712;28;20028;-74
2021/05/07 04:29:22;;;;;;;11.23;8.10;;;7.40;97.80;;;;;;5027996;28;20332;-74
2021/05/07 04:31:49;;;;;;;11.77;7.90;;;7.40;98.00;;;;;;5030236;28;20083;-75
2021/05/07 04:34:14;;;;;;;11.57;7.22;;;7.40;97.90;;;;;;5028413;28;20362;-75
2021/05/07 04:36:40;;;;;;;13.82;8.35;;;7.40;98.10;;;;;;5028524;28;20120;-74
2021/05/07 04:39:07;;;;;;;10.32;6.88;;;7.30;98.10;;;;;;5027464;28;20060;-76
2021/05/07 04:41:33;;;;;;;8.77;6.47;;;7.20;98.20;;;;;;5027482;28;20022;-75
2021/05/07 04:43:59;;;;;;;9.65;6.47;;;7.30;98.20;;;;;;5029964;28;20030;-76
2021/05/07 04:46:25;;;;;;;10.88;6.25;;;7.10;98.00;;;;;;5027241;28;20029;-75
2021/05/07 04:48:52;;;;;;;12.68;6.80;;;7.10;98.30;;;;;;5027350;28;20037;-75
2021/05/07 04:51:17;;;;;;;12.80;5.80;;;7.10;98.30;;;;;;5030358;28;20510;-75
2021/05/07 04:53:43;;;;;;;8.93;6.07;;;7.20;98.30;;;;;;5030942;28;20041;-75
2021/05/07 04:56:08;;;;;;;9.05;6.05;;;7.30;98.30;;;;;;5033401;28;20085;-75
2021/05/07 04:58:34;;;;;;;9.65;5.88;;;7.20;98.00;;;;;;5031577;28;20052;-75
2021/05/07 05:01:00;;;;;;;9.10;5.57;;;7.30;98.20;;;;;;5031870;28;20057;-75
2021/05/07 05:03:26;;;;;;;7.80;5.25;;;7.20;98.00;;;;;;5032083;28;20443;-74
2021/05/07 05:05:51;;;;;;;9.73;5.68;;;7.10;98.10;;;;;;5031954;28;20097;-75
2021/05/07 05:08:21;;;;;;;7.30;4.18;;;7.20;98.20;;;;;;5032062;28;20025;-69
2021/05/07 05:10:48;;;;;;;8.95;5.50;;;7.30;98.10;;;;;;5033541;28;20052;-75
2021/05/07 05:13:14;;;;;;;7.25;5.18;;;7.40;98.00;;;;;;5031754;28;20037;-74
2021/05/07 05:15:39;;;;;;;10.00;4.93;;;7.40;97.80;;;;;;5031751;28;20033;-75
2021/05/07 05:18:05;;;;;;;10.25;5.00;;;7.40;98.00;;;;;;5031364;28;20091;-75
2021/05/07 05:20:31;;;;;;;11.27;5.55;;;7.30;97.70;;;;;;5031773;28;20026;-76
2021/05/07 05:22:56;;;;;;;7.88;4.75;;;7.10;97.80;;;;;;5033126;28;20048;-75
2021/05/07 05:25:22;;;;;;;8.10;4.93;;;7.00;97.90;;;;;;5030602;28;20049;-75
2021/05/07 05:27:48;;;;;;;9.68;5.93;;;7.30;98.10;;;;;;5031695;28;20041;-74
2021/05/07 05:30:14;;;;;;;9.18;5.28;;;7.40;98.10;;;;;;5031278;28;20471;-75
2021/05/07 05:32:39;;;;;;;10.57;6.22;;;7.60;97.90;;;;;;5031829;28;20044;-75
2021/05/07 05:35:05;;;;;;;9.98;6.03;;;7.60;97.80;;;;;;5033347;28;20052;-75
2021/05/07 05:37:31;;;;;;;9.48;6.47;;;7.70;97.70;;;;;;5031323;28;20132;-75
2021/05/07 05:39:58;;;;;;;10.07;6.97;;;7.70;98.00;;;;;;5030566;28;20175;-76
2021/05/07 05:42:24;;;;;;;11.85;6.93;;;7.80;98.40;;;;;;5030721;28;20502;-75
2021/05/07 05:44:50;;;;;;;10.52;7.45;;;7.80;97.80;;;;;;5031494;28;20045;-76
2021/05/07 05:47:16;;;;;;;13.43;9.32;;;7.90;97.80;;;;;;5032619;28;20037;-77
2021/05/07 05:49:43;;;;;;;12.93;8.57;;;7.70;98.10;;;;;;5029970;28;20052;-76
2021/05/07 05:52:08;;;;;;;14.93;9.40;;;7.60;98.40;;;;;;5030190;28;20506;-76
2021/05/07 05:54:34;;;;;;;15.40;10.00;;;7.60;98.40;;;;;;5031240;28;20080;-76
2021/05/07 05:56:59;;;;;;;17.45;11.18;;;7.60;98.40;;;;;;5031051;28;20030;-76
2021/05/07 05:59:25;;;;;;;18.00;10.73;;;7.50;98.50;;;;;;5030881;28;20068;-75
2021/05/07 06:01:51;;;;;;;18.13;10.23;;;7.60;98.70;;;;;;5030470;28;20037;-75
2021/05/07 06:04:17;;;;;;;15.38;10.80;;;7.50;98.50;;;;;;5030937;28;20057;-76
2021/05/07 06:06:42;;;;;;;15.45;11.02;;;7.60;98.40;;;;;;5030584;28;20095;-76
2021/05/07 06:09:08;;;;;;;20.60;12.38;;;7.60;98.20;;;;;;5029652;28;20018;-74
2021/05/07 06:11:34;;;;;;;17.80;11.70;;;7.60;98.40;;;;;;5030927;28;20053;-75
2021/05/07 06:13:59;;;;;;;19.20;13.00;;;7.60;98.50;;;;;;5032140;28;20028;-75
2021/05/07 06:16:25;;;;;;;18.00;11.52;;;7.60;98.80;;;;;;5030189;28;20112;-76
2021/05/07 06:18:51;;;;;;;17.45;12.70;;;7.80;98.60;;;;;;5030252;28;20049;-76
2021/05/07 06:21:16;;;;;;;20.73;12.48;;;7.70;98.30;;;;;;5021107;28;20494;-76
2021/05/07 06:23:42;;;;;;;18.15;11.77;;;7.90;98.30;;;;;;5013942;28;20486;-75
2021/05/07 06:26:08;;;;;;;20.42;12.60;;;8.00;98.20;;;;;;5030561;28;20025;-74
2021/05/07 06:28:33;;;;;;;18.00;12.40;;;7.90;98.20;;;;;;5030114;28;20042;-75
2021/05/07 06:30:59;;;;;;;18.73;11.88;;;7.90;98.30;;;;;;5030320;28;20037;-75
2021/05/07 06:33:28;;;;;;;18.90;12.15;;;7.90;98.50;;;;;;5030622;28;20068;-75
2021/05/07 06:35:54;;;;;;;20.13;12.00;;;7.90;98.20;;;;;;5030492;28;20036;-75
2021/05/07 06:38:20;;;;;;;19.33;12.00;;;7.90;98.30;;;;;;5030068;28;20050;-75
2021/05/07 06:40:45;;;;;;;18.27;11.77;;;7.90;98.60;;;;;;5030671;28;20639;-76
2021/05/07 06:43:12;;;;;;;21.35;11.98;;;8.00;98.30;;;;;;5030249;28;20471;-75
2021/05/07 06:45:38;;;;;;;20.77;11.70;;;8.00;98.30;;;;;;5029987;28;20034;-76
2021/05/07 06:48:05;;;;;;;16.80;11.57;;;8.10;98.30;;;;;;5029803;28;20037;-76
2021/05/07 06:50:30;;;;;;;21.58;11.05;;;8.00;98.10;;;;;;5030443;28;20083;-75
2021/05/07 06:52:57;;;;;;;18.92;11.70;;;8.10;97.80;;;;;;5031747;28;20427;-76
2021/05/07 06:55:23;;;;;;;16.42;10.70;;;8.10;97.70;;;;;;5029906;28;20048;-77
2021/05/07 06:57:50;;;;;;;19.90;11.75;;;8.20;97.60;;;;;;5029897;28;20038;-75
2021/05/07 07:00:16;;;;;;;17.02;11.57;;;8.30;97.80;;;;;;5029898;28;20025;-74
2021/05/07 07:02:42;;;;;;;15.13;10.15;;;8.40;97.60;;;;;;5028557;28;20053;-75
2021/05/07 07:05:08;;;;;;;17.17;10.60;;;8.30;97.30;;;;;;5030336;28;20060;-74
2021/05/07 07:07:35;;;;;;;16.00;11.00;;;8.30;97.30;;;;;;5029797;28;20029;-74
2021/05/07 07:10:01;;;;;;;14.73;10.38;;;8.30;97.30;;;;;;5029950;28;20057;-75
2021/05/07 07:12:27;;;;;;;14.95;10.32;;;8.40;97.20;;;;;;5029535;28;20056;-75
2021/05/07 07:14:52;;;;;;;16.98;10.35;;;8.40;97.20;;;;;;5028292;28;20083;-76
2021/05/07 07:17:18;;;;;;;17.92;10.10;;;8.40;97.30;;;;;;5027887;28;20236;-75
2021/05/07 07:19:43;;;;;;;16.35;10.18;;;8.70;97.00;;;;;;5030847;28;20044;-78
2021/05/07 07:22:09;;;;;;;14.23;9.32;;;8.70;96.70;;;;;;5029478;28;20034;-75
2021/05/07 07:24:35;;;;;;;19.48;8.75;;;8.80;96.30;;;;;;5029725;28;20080;-75
2021/05/07 07:27:01;;;;;;;12.55;8.50;;;8.70;95.90;;;;;;5029445;28;20038;-76
2021/05/07 07:29:26;;;;;;;12.70;8.32;;;8.60;95.80;;;;;;5027740;28;20038;-74
2021/05/07 07:31:52;;;;;;;16.25;8.85;;;8.70;95.70;;;;;;5030742;28;20018;-75
2021/05/07 07:34:19;;;;;;;14.45;9.18;;;8.80;95.80;;;;;;5029680;28;20408;-74
2021/05/07 07:36:45;;;;;;;23.10;8.98;;;8.70;95.80;;;;;;5029482;28;20045;-75
2021/05/07 07:39:14;;;;;;;15.93;8.88;;;8.70;95.90;;;;;;5029574;28;20049;-76
2021/05/07 07:41:40;;;;;;;12.43;7.68;;;8.80;95.70;;;;;;5028710;28;20064;-75
2021/05/07 07:44:06;;;;;;;13.07;7.20;;;8.60;95.40;;;;;;5030511;28;20665;-75
2021/05/07 07:46:32;;;;;;;10.27;7.03;;;8.50;95.30;;;;;;5028760;28;20478;-76
2021/05/07 07:48:58;;;;;;;11.75;6.60;;;8.60;95.00;;;;;;5028956;28;20037;-74
2021/05/07 07:51:29;;;;;;;9.00;6.00;;;8.40;94.90;;;;;;5029090;28;20064;-75
2021/05/07 07:53:55;;;;;;;11.90;6.20;;;8.30;95.00;;;;;;5028135;28;20560;-77
2021/05/07 07:56:21;;;;;;;7.93;5.78;;;8.50;95.10;;;;;;5027682;28;20034;-75
2021/05/07 07:58:47;;;;;;;10.32;5.88;;;8.70;95.00;;;;;;5030146;28;20470;-74
2021/05/07 08:01:12;;;;;;;9.95;5.60;;;8.70;94.70;;;;;;5027189;28;20026;-75
2021/05/07 08:03:38;;;;;;;10.52;5.85;;;8.90;94.90;;;;;;5028984;28;20062;-74
2021/05/07 08:06:04;;;;;;;7.13;5.25;;;8.80;94.10;;;;;;5028849;28;20029;-75
2021/05/07 08:08:29;;;;;;;10.48;6.07;;;8.50;94.10;;;;;;5028583;28;20032;-75
2021/05/07 08:10:55;;;;;;;11.05;6.03;;;8.60;94.40;;;;;;5029069;28;20064;-76
2021/05/07 08:13:20;;;;;;;14.55;6.13;;;8.50;94.60;;;;;;5028813;28;20075;-76
2021/05/07 08:15:46;;;;;;;7.32;5.30;;;8.50;94.40;;;;;;5028738;28;20363;-75
2021/05/07 08:18:12;;;;;;;8.32;5.30;;;8.70;94.40;;;;;;5019933;28;20068;-75
2021/05/07 08:20:37;;;;;;;9.80;5.43;;;8.90;94.20;;;;;;5010384;28;20037;-76
2021/05/07 08:23:03;;;;;;;9.90;5.47;;;9.20;94.00;;;;;;5029867;28;20025;-76
2021/05/07 08:25:29;;;;;;;7.53;5.15;;;9.30;93.80;;;;;;5029241;28;20371;-75
2021/05/07 08:27:54;;;;;;;9.68;5.85;;;9.40;93.50;;;;;;5031933;28;20048;-73
2021/05/07 08:30:21;;;;;;;9.77;5.43;;;9.50;93.60;;;;;;5031502;28;20129;-75
2021/05/07 08:32:46;;;;;;;7.03;5.00;;;9.40;93.20;;;;;;5032297;28;20037;-75
2021/05/07 08:35:12;;;;;;;8.32;4.97;;;9.50;93.10;;;;;;5033651;28;20026;-75
2021/05/07 08:37:44;;;;;;;10.98;5.03;;;9.30;92.90;;;;;;5032374;28;20124;-75
2021/05/07 08:40:15;;;;;;;7.22;4.70;;;9.30;93.00;;;;;;5032243;28;20041;-76
2021/05/07 08:42:40;;;;;;;9.80;5.18;;;9.40;93.40;;;;;;5031153;28;20073;-76
2021/05/07 08:45:07;;;;;;;7.13;3.80;;;9.30;93.90;;;;;;5032440;28;20351;-76
2021/05/07 08:47:34;;;;;;;7.60;4.85;;;9.20;93.50;;;;;;5030552;28;20025;-75
2021/05/07 08:50:03;;;;;;;5.85;4.05;;;9.40;93.30;;;;;;5033175;28;20021;-75
2021/05/07 08:52:31;;;;;;;7.40;4.00;;;9.60;93.20;;;;;;5032158;28;20499;-75
2021/05/07 08:54:58;;;;;;;8.82;4.20;;;9.90;92.80;;;;;;5018172;28;20165;-75
2021/05/07 08:57:24;;;;;;;4.90;3.50;;;9.80;92.00;;;;;;5021489;28;20057;-76
2021/05/07 08:59:50;;;;;;;7.93;3.35;;;9.70;92.00;;;;;;5030811;28;20076;-73
2021/05/07 09:02:25;;;;;;;5.90;3.22;;;9.60;91.60;;;;;;5033513;28;20014;-74
2021/05/07 09:04:54;;;;;;;5.72;3.10;;;9.40;91.20;;;;;;5032505;28;20030;-75
2021/05/07 09:07:19;;;;;;;5.82;3.13;;;9.60;91.50;;;;;;5031003;28;20037;-74
2021/05/07 09:09:57;;;;;;;9.35;3.85;;;9.80;91.40;;;;;;5031863;28;20157;-75
2021/05/07 09:12:35;;;;;;;7.78;3.40;;;10.30;90.50;;;;;;5031812;28;20056;-76
2021/05/07 09:15:02;;;;;;;8.57;3.67;;;10.30;89.80;;;;;;5031531;28;20037;-74
2021/05/07 09:17:29;;;;;;;5.15;3.03;;;10.50;89.60;;;;;;5030695;28;20116;-76
2021/05/07 09:20:06;;;;;;;4.20;2.95;;;10.30;88.30;;;;;;5033208;28;20079;-75
2021/05/07 09:22:32;;;;;;;3.40;2.40;;;10.40;88.60;;;;;;5030057;28;20463;-76
2021/05/07 09:25:16;;;;;;;6.50;2.90;;;11.10;87.70;;;;;;5031213;28;20034;-75
2021/05/07 09:27:42;;;;;;;6.65;2.67;;;11.50;86.00;;;;;;5030542;28;20052;-75
2021/05/07 09:30:29;;;;;;;3.65;2.53;;;11.40;84.30;;;;;;5031789;28;20069;-76
2021/05/07 09:32:55;;;;;;;4.60;2.40;;;11.20;84.80;;;;;;5031291;28;20037;-74
2021/05/07 09:35:28;;;;;;;2.90;2.15;;;10.80;83.40;;;;;;5031417;28;20053;-74
2021/05/07 09:38:05;;;;;;;4.47;2.00;;;10.90;83.60;;;;;;5032555;28;20320;-74
2021/05/07 09:40:32;;;;;;;5.47;2.03;;;10.70;82.80;;;;;;5031347;28;20038;-75
2021/05/07 09:43:14;;;;;;;4.18;1.83;;;10.70;83.20;;;;;;5029864;28;20254;-74
2021/05/07 09:45:43;;;;;;;2.80;2.05;;;10.50;82.60;;;;;;5029846;28;20045;-75
2021/05/07 09:48:27;;;;;;;;;;;10.60;84.30;;;;;;5031513;28;20037;-75
2021/05/07 09:50:56;;;;;;;5.25;2.22;;;10.80;82.40;;;;;;5030007;28;19909;-73
2021/05/07 09:53:23;;;;;;;4.28;1.77;;;11.10;82.50;;;;;;5031199;28;20025;-74
2021/05/07 09:55:53;;;;;;;3.58;1.98;;;11.10;81.40;;;;;;5032593;28;20029;-74
2021/05/07 09:58:18;;;;;;;3.50;2.03;;;11.30;81.60;;;;;;5030850;28;20040;-75
2021/05/07 10:00:44;;;;;;;4.47;2.03;;;11.20;80.80;;;;;;5031115;28;20037;-74
2021/05/07 10:03:10;;;;;;;4.38;1.92;;;11.30;80.20;;;;;;5031085;28;20037;-75
2021/05/07 10:05:37;;;;;;;9.75;2.00;;;11.00;79.50;;;;;;5030852;28;20567;-75
2021/05/07 10:08:04;;;;;;;6.15;1.80;;;11.10;80.30;;;;;;5032295;28;20029;-74
2021/05/07 10:10:38;;;;;;;3.42;1.90;;;11.00;79.20;;;;;;5010903;28;20034;-75
2021/05/07 10:13:14;;;;;;;3.08;1.80;;;11.10;79.80;;;;;;5025350;28;20045;-75
2021/05/07 10:15:41;;;;;;;3.88;1.80;;;11.50;80.60;;;;;;5030746;28;20038;-76
2021/05/07 10:18:09;;;;;;;5.60;2.00;;;11.50;78.80;;;;;;5030655;28;20041;-75
2021/05/07 10:20:39;;;;;;;;;;;11.60;79.20;;;;;;5031060;28;20328;-74
2021/05/07 10:23:20;;;;;;;4.97;1.83;;;11.20;80.00;;;;;;5032030;28;19911;-74
2021/05/07 10:25:59;;;;;;;4.70;1.90;;;11.10;80.60;;;;;;5030533;28;20041;-75
2021/05/07 10:28:26;;;;;;;6.68;1.92;;;11.00;79.90;;;;;;5030267;28;20073;-74
2021/05/07 10:31:05;;;;;;;2.65;1.92;;;11.20;80.80;;;;;;5029993;28;20340;-75
2021/05/07 10:33:32;;;;;;;4.25;1.65;;;11.00;80.60;;;;;;5030601;28;20250;-75
2021/05/07 10:35:57;;;;;;;6.88;1.67;;;11.10;81.10;;;;;;5030302;28;20026;-74
2021/05/07 10:38:23;;;;;;;3.05;1.33;;;11.00;80.50;;;;;;5029927;28;20091;-75
2021/05/07 10:41:02;;;;;;;5.75;1.60;;;10.90;80.40;;;;;;5031705;28;20355;-75
2021/05/07 10:43:39;;;;;;;4.20;2.13;;;10.90;80.80;;;;;;5029784;28;20128;-74
2021/05/07 10:46:05;;;;;;;2.88;2.05;;;10.50;80.50;;;;;;5029992;28;20031;-73
2021/05/07 10:48:31;;;;;;;4.07;2.00;;;10.50;81.50;;;;;;5029012;28;20044;-74
2021/05/07 10:51:14;;;;;;;3.42;1.95;;;10.50;81.70;;;;;;5029548;28;20029;-73
2021/05/07 10:53:40;;;;;;;3.55;2.35;;;10.70;81.60;;;;;;5028781;28;20598;-75
2021/05/07 10:56:20;;;;;;;2.38;1.92;;;10.80;81.30;;;;;;5031367;28;20036;-74
2021/05/07 10:58:47;;;;;;;4.15;2.10;;;10.90;81.80;;;;;;5030242;28;20665;-74
2021/05/07 11:01:25;;;;;;;3.67;2.20;;;11.10;81.00;;;;;;5028573;28;20290;-78
2021/05/07 11:04:10;;;;;;;5.35;2.40;;;11.00;79.90;;;;;;5028390;28;20048;-74
2021/05/07 11:06:45;;;;;;;4.07;2.08;;;11.20;80.60;;;;;;5029482;28;20108;-75
2021/05/07 11:09:31;;;;;;;3.08;2.15;;;11.50;80.20;;;;;;5029124;28;20048;-75
2021/05/07 11:12:04;;;;;;;3.42;2.22;;;11.80;78.70;;;;;;5029211;28;20034;-74
2021/05/07 11:14:34;;;;;;;3.22;2.08;;;11.80;77.80;;;;;;5028230;28;20048;-74
2021/05/07 11:17:03;;;;;;;3.65;2.15;;;12.00;78.20;;;;;;5030856;28;20026;-73
2021/05/07 11:19:33;;;;;;;22.02;10.65;;;12.10;77.60;;;;;;5028311;28;20033;-74
2021/05/07 11:22:06;;;;;;;7.30;2.92;;;12.10;77.70;;;;;;5029121;28;20151;-74
2021/05/07 11:24:46;;;;;;;2.95;2.00;;;12.20;78.10;;;;;;5028235;28;20048;-76
2021/05/07 11:27:21;;;;;;;2.75;2.17;;;12.30;77.90;;;;;;5029161;28;20029;-75
2021/05/07 11:29:48;;;;;;;4.57;2.65;;;12.50;77.30;;;;;;5029444;28;20482;-74
2021/05/07 11:32:22;;;;;;;4.10;2.05;;;12.70;75.60;;;;;;5030523;28;20040;-74
2021/05/07 11:34:53;;;;;;;4.50;1.92;;;12.80;75.30;;;;;;5029552;28;20052;-74
2021/05/07 11:37:19;;;;;;;2.53;1.52;;;12.80;74.70;;;;;;5028911;28;20045;-73
2021/05/07 11:39:58;;;;;;;4.80;2.05;;;12.80;74.60;;;;;;5028988;28;20068;-74
2021/05/07 11:42:28;;;;;;;2.30;1.92;;;13.20;74.10;;;;;;5029157;28;20068;-75
2021/05/07 11:44:53;;;;;;;1.70;1.55;;;13.30;72.20;;;;;;5028920;28;20147;-74
2021/05/07 11:47:19;;;;;;;1.98;1.52;;;13.00;71.70;;;;;;5028965;28;20033;-76
2021/05/07 11:49:50;;;;;;;4.20;2.22;;;13.10;71.90;;;;;;5030473;28;20022;-74
2021/05/07 11:52:15;;;;;;;3.00;1.30;;;12.80;72.30;;;;;;5029265;28;20037;-75
2021/05/07 11:54:43;;;;;;;8.07;3.30;;;12.90;71.50;;;;;;5029062;28;20187;-75
2021/05/07 11:57:10;;;;;;;3.75;1.30;;;13.20;69.20;;;;;;5028710;28;20124;-74
2021/05/07 11:59:48;;;;;;;2.13;1.30;;;13.20;68.00;;;;;;5028828;28;20135;-74
2021/05/07 12:02:24;;;;;;;;;;;13.10;67.80;;;;;;5029651;28;20514;-76
2021/05/07 12:04:50;;;;;;;3.58;2.30;;;13.20;69.80;;;;;;5029377;28;20392;-74
2021/05/07 12:07:28;;;;;;;2.13;1.55;;;13.30;70.20;;;;;;5028631;28;20044;-74
2021/05/07 12:09:59;;;;;;;5.15;2.50;;;13.30;69.20;;;;;;5028741;28;20091;-73
2021/05/07 12:12:30;;;;;;;2.75;1.70;;;13.00;68.30;;;;;;5028582;28;20132;-74
2021/05/07 12:15:06;;;;;;;3.35;1.80;;;13.20;68.90;;;;;;5027649;28;20033;-76
2021/05/07 12:17:52;;;;;;;2.85;1.50;;;13.40;70.20;;;;;;5028583;28;20362;-75
2021/05/07 12:20:21;;;;;;;3.88;1.50;;;13.60;68.70;;;;;;5028714;28;20021;-73
2021/05/07 12:22:52;;;;;;;2.70;1.70;;;13.70;67.40;;;;;;5030149;28;20029;-74
2021/05/07 12:25:20;;;;;;;4.93;1.60;;;13.60;67.10;;;;;;5029032;28;20380;-74
2021/05/07 12:27:47;;;;;;;1.88;1.30;;;13.50;68.20;;;;;;5027370;28;20522;-75
2021/05/07 12:30:17;;;;;;;4.20;1.52;;;13.60;68.30;;;;;;5026384;28;20045;-75
2021/05/07 12:32:51;;;;;;;1.92;1.70;;;13.60;68.00;;;;;;5028450;28;20034;-75
2021/05/07 12:35:17;;;;;;;5.50;2.20;;;13.40;68.40;;;;;;5029706;28;20030;-76
2021/05/07 12:37:45;;;;;;;2.05;1.60;;;13.20;69.50;;;;;;5028891;28;20456;-75
2021/05/07 12:40:11;;;;;;;2.88;1.25;;;13.20;68.40;;;;;;5028520;28;20120;-74
2021/05/07 12:42:37;;;;;;;2.10;1.17;;;13.40;68.50;;;;;;5028718;28;20479;-76
2021/05/07 12:45:03;;;;;;;3.13;1.67;;;13.70;67.10;;;;;;5028072;28;20044;-75
2021/05/07 12:47:29;;;;;;;3.28;1.42;;;13.70;65.70;;;;;;5028388;28;20038;-75
2021/05/07 12:49:55;;;;;;;4.07;1.50;;;13.60;64.90;;;;;;5028867;28;20096;-75
2021/05/07 12:52:20;;;;;;;1.90;1.30;;;13.60;65.40;;;;;;5026600;28;20045;-75
2021/05/07 12:54:46;;;;;;;5.93;1.30;;;13.40;64.30;;;;;;5028553;28;20177;-74